createdAt,value
2023-03-27T00:02:23.760Z,7.54
2023-03-27T00:05:10.883Z,7.58
2023-03-27T00:07:58.199Z,7.57
2023-03-27T00:10:48.055Z,7.57
2023-03-27T00:13:36.539Z,7.45
2023-03-27T00:16:37.439Z,7.07
2023-03-27T00:19:25.222Z,7.12
2023-03-27T00:22:12.980Z,7.06
2023-03-27T00:25:00.120Z,7.04
2023-03-27T00:27:47.398Z,6.88
2023-03-27T00:30:35.499Z,6.82
2023-03-27T00:33:23.940Z,6.86
2023-03-27T00:36:11.614Z,6.75
2023-03-27T00:38:58.933Z,6.66
2023-03-27T00:41:46.109Z,6.69
2023-03-27T00:44:34.629Z,6.62
2023-03-27T00:47:38.794Z,6.61
2023-03-27T00:50:31.154Z,6.59
2023-03-27T00:53:23.259Z,6.42
2023-03-27T00:56:10.929Z,6.38
2023-03-27T00:59:02.319Z,6.55
2023-03-27T01:01:49.530Z,6.54
2023-03-27T01:04:38.912Z,6.51
2023-03-27T01:07:26.126Z,6.53
2023-03-27T01:10:13.506Z,6.39
2023-03-27T01:13:28.272Z,6.13
2023-03-27T01:16:38.991Z,6.39
2023-03-27T01:19:47.913Z,6.44
2023-03-27T01:23:12.522Z,6.51
2023-03-27T01:26:08.399Z,6.45
2023-03-27T01:29:10.501Z,6.35
2023-03-27T01:32:22.168Z,6.32
2023-03-27T01:35:30.876Z,6.24
2023-03-27T01:39:05.627Z,6.26
2023-03-27T01:42:07.884Z,6.24
2023-03-27T01:45:15.896Z,6.16
2023-03-27T01:48:08.809Z,6.01
2023-03-27T01:51:02.092Z,5.86
2023-03-27T01:53:56.334Z,5.82
2023-03-27T01:57:02.665Z,5.50
2023-03-27T01:59:57.260Z,5.52
2023-03-27T02:03:11.379Z,5.42
2023-03-27T02:06:04.562Z,5.40
2023-03-27T02:09:04.206Z,5.22
2023-03-27T02:12:01.279Z,5.43
2023-03-27T02:14:54.379Z,5.46
2023-03-27T02:17:50.147Z,5.59
2023-03-27T02:20:39.948Z,5.47
2023-03-27T02:23:27.052Z,5.25
2023-03-27T02:26:14.279Z,5.40
2023-03-27T02:29:20.877Z,5.39
2023-03-27T02:32:22.615Z,5.37
2023-03-27T02:35:31.278Z,5.14
2023-03-27T02:38:41.308Z,5.44
2023-03-27T02:41:41.191Z,5.32
2023-03-27T02:44:46.377Z,5.17
2023-03-27T02:47:41.325Z,5.12
2023-03-27T02:50:34.412Z,4.98
2023-03-27T02:53:28.612Z,5.24
2023-03-27T02:56:19.031Z,4.95
2023-03-27T02:59:10.442Z,5.07
2023-03-27T03:01:58.847Z,5.06
2023-03-27T03:04:58.234Z,5.20
2023-03-27T03:07:46.627Z,5.14
2023-03-27T03:10:33.835Z,5.11
2023-03-27T03:13:20.879Z,5.03
2023-03-27T03:16:08.960Z,5.01
2023-03-27T03:18:56.390Z,5.12
2023-03-27T03:21:43.611Z,5.09
2023-03-27T03:24:30.693Z,5.12
2023-03-27T03:27:21.219Z,5.03
2023-03-27T03:30:09.824Z,5.02
2023-03-27T03:32:57.673Z,4.96
2023-03-27T03:35:50.741Z,5.04
2023-03-27T03:38:38.317Z,5.05
2023-03-27T03:41:25.711Z,4.89
2023-03-27T03:44:12.795Z,4.86
2023-03-27T03:46:59.878Z,4.80
2023-03-27T03:49:46.987Z,4.80
2023-03-27T03:52:34.156Z,4.94
2023-03-27T03:55:21.306Z,4.72
2023-03-27T03:58:20.209Z,4.91
2023-03-27T04:01:09.167Z,4.77
2023-03-27T04:03:56.549Z,4.68
2023-03-27T04:06:45.038Z,4.39
2023-03-27T04:09:32.103Z,4.45
2023-03-27T04:12:19.344Z,4.52
2023-03-27T04:15:07.366Z,4.36
2023-03-27T04:17:54.695Z,4.55
2023-03-27T04:20:42.043Z,4.45
2023-03-27T04:23:32.044Z,4.23
2023-03-27T04:26:19.217Z,4.31
2023-03-27T04:29:10.529Z,4.42
2023-03-27T04:31:58.928Z,4.20
2023-03-27T04:34:48.429Z,4.28
2023-03-27T04:37:36.173Z,4.24
2023-03-27T04:40:25.691Z,4.28
2023-03-27T04:43:13.520Z,3.97
2023-03-27T04:46:00.712Z,4.08
2023-03-27T04:48:47.928Z,4.29
2023-03-27T04:51:35.013Z,4.42
2023-03-27T04:54:23.230Z,4.39
2023-03-27T04:57:10.596Z,4.39
2023-03-27T04:59:59.094Z,4.26
2023-03-27T05:02:48.046Z,4.28
2023-03-27T05:05:35.237Z,4.46
2023-03-27T05:08:22.840Z,4.32
2023-03-27T05:11:10.930Z,4.31
2023-03-27T05:13:58.047Z,4.45
2023-03-27T05:16:45.733Z,4.55
2023-03-27T05:19:32.816Z,4.47
2023-03-27T05:22:19.847Z,4.47
2023-03-27T05:25:07.485Z,4.42
2023-03-27T05:27:54.771Z,4.41
2023-03-27T05:30:42.540Z,4.34
2023-03-27T05:33:29.694Z,4.28
2023-03-27T05:36:16.778Z,4.31
2023-03-27T05:39:04.821Z,4.30
2023-03-27T05:41:52.152Z,4.33
2023-03-27T05:44:39.208Z,4.30
2023-03-27T05:47:26.436Z,4.19
2023-03-27T05:50:14.800Z,4.32
2023-03-27T05:53:04.605Z,4.27
2023-03-27T05:56:03.043Z,4.32
2023-03-27T05:58:50.928Z,4.17
2023-03-27T06:01:39.983Z,4.19
2023-03-27T06:04:28.738Z,4.43
2023-03-27T06:07:16.071Z,4.25
2023-03-27T06:10:03.419Z,4.44
2023-03-27T06:13:03.007Z,4.54
2023-03-27T06:15:53.911Z,4.62
2023-03-27T06:18:41.440Z,4.55
2023-03-27T06:21:28.507Z,4.63
2023-03-27T06:24:15.607Z,4.71
2023-03-27T06:27:03.910Z,4.81
2023-03-27T06:29:51.005Z,4.94
2023-03-27T06:32:43.984Z,4.98
2023-03-27T06:35:33.350Z,5.01
2023-03-27T06:38:21.240Z,4.97
2023-03-27T06:41:08.284Z,5.06
2023-03-27T06:43:55.405Z,5.07
2023-03-27T06:46:45.435Z,5.21
2023-03-27T06:49:33.122Z,5.23
2023-03-27T06:52:20.184Z,5.35
2023-03-27T06:55:08.680Z,5.37
2023-03-27T06:58:03.454Z,5.49
2023-03-27T07:00:51.446Z,5.51
2023-03-27T07:03:38.880Z,5.61
2023-03-27T07:06:25.948Z,5.72
2023-03-27T07:09:13.551Z,5.77
2023-03-27T07:12:00.733Z,5.82
2023-03-27T07:14:47.869Z,5.90
2023-03-27T07:17:47.685Z,5.93
2023-03-27T07:20:36.392Z,5.90
2023-03-27T07:23:23.498Z,6.01
2023-03-27T07:26:10.766Z,6.02
2023-03-27T07:29:00.776Z,6.10
2023-03-27T07:31:56.848Z,6.19
2023-03-27T07:34:46.500Z,6.02
2023-03-27T07:37:33.598Z,6.38
2023-03-27T07:40:26.622Z,6.43
2023-03-27T07:43:24.576Z,6.36
2023-03-27T07:46:11.879Z,6.35
2023-03-27T07:48:59.009Z,6.37
2023-03-27T07:51:46.729Z,6.52
2023-03-27T07:54:33.965Z,6.48
2023-03-27T07:57:21.146Z,6.56
2023-03-27T08:00:15.410Z,6.78
2023-03-27T08:03:11.004Z,6.84
2023-03-27T08:08:26.048Z,6.70
2023-03-27T08:11:19.756Z,6.81
2023-03-27T08:14:14.837Z,6.63
2023-03-27T08:17:14.424Z,6.67
2023-03-27T08:20:09.376Z,6.73
2023-03-27T08:22:56.637Z,7.01
2023-03-27T08:25:43.717Z,6.78
2023-03-27T08:28:32.965Z,6.87
2023-03-27T08:31:20.661Z,6.69
2023-03-27T08:34:09.451Z,6.53
2023-03-27T08:36:56.533Z,6.68
2023-03-27T08:39:46.846Z,6.48
2023-03-27T08:42:37.367Z,6.69
2023-03-27T08:45:32.179Z,6.37
2023-03-27T08:48:47.006Z,6.40
2023-03-27T08:51:59.731Z,6.27
2023-03-27T08:54:53.628Z,6.04
2023-03-27T08:57:40.996Z,6.07
2023-03-27T09:00:39.774Z,5.83
2023-03-27T09:03:35.393Z,5.61
2023-03-27T09:06:30.336Z,5.90
2023-03-27T09:09:39.202Z,5.91
2023-03-27T09:13:04.769Z,5.49
2023-03-27T09:16:03.293Z,5.56
2023-03-27T09:19:03.561Z,5.57
2023-03-27T09:21:58.010Z,5.35
2023-03-27T09:24:49.141Z,5.61
2023-03-27T09:27:37.862Z,5.63
2023-03-27T09:30:33.728Z,5.54
2023-03-27T09:33:20.800Z,5.29
2023-03-27T09:36:08.378Z,5.28
2023-03-27T09:39:06.015Z,5.40
2023-03-27T09:42:16.864Z,5.43
2023-03-27T09:45:08.124Z,5.50
2023-03-27T09:48:02.575Z,5.38
2023-03-27T09:50:49.702Z,5.15
2023-03-27T09:53:38.951Z,5.10
2023-03-27T09:56:27.505Z,4.86
2023-03-27T09:59:38.044Z,5.12
2023-03-27T10:02:28.943Z,5.11
2023-03-27T10:05:20.261Z,5.11
2023-03-27T10:08:30.983Z,5.26
2023-03-27T10:11:22.466Z,5.06
2023-03-27T10:14:16.916Z,4.98
2023-03-27T10:17:05.295Z,5.05
2023-03-27T10:19:57.333Z,5.00
2023-03-27T10:22:56.804Z,5.01
2023-03-27T10:25:50.689Z,4.96
2023-03-27T10:28:40.933Z,5.06
2023-03-27T10:31:30.012Z,4.58
2023-03-27T10:34:41.325Z,4.56
2023-03-27T10:37:34.614Z,4.61
2023-03-27T10:40:26.656Z,4.88
2023-03-27T10:43:18.310Z,4.91
2023-03-27T10:46:11.218Z,4.84
2023-03-27T10:49:10.757Z,5.12
2023-03-27T10:52:22.203Z,5.11
2023-03-27T10:55:23.982Z,5.19
2023-03-27T10:58:23.666Z,5.02
2023-03-27T11:01:26.602Z,5.38
2023-03-27T11:04:45.065Z,5.32
2023-03-27T11:07:38.099Z,5.36
2023-03-27T11:10:41.395Z,5.49
2023-03-27T11:13:37.684Z,5.56
2023-03-27T11:16:32.796Z,5.77
2023-03-27T11:19:22.689Z,5.28
2023-03-27T11:22:17.352Z,5.32
2023-03-27T11:25:15.435Z,5.42
2023-03-27T11:28:22.909Z,5.52
2023-03-27T11:31:39.355Z,5.31
2023-03-27T11:34:53.999Z,5.32
2023-03-27T11:37:57.187Z,5.32
2023-03-27T11:40:47.875Z,5.67
2023-03-27T11:43:38.769Z,6.01
2023-03-27T11:47:03.587Z,5.96
2023-03-27T11:50:18.673Z,6.06
2023-03-27T11:53:11.773Z,5.69
2023-03-27T11:56:02.010Z,5.71
2023-03-27T11:59:34.873Z,5.61
2023-03-27T12:02:59.330Z,5.56
2023-03-27T12:05:56.207Z,5.30
2023-03-27T12:08:55.719Z,5.54
2023-03-27T12:11:50.142Z,5.48
2023-03-27T12:14:41.254Z,5.56
2023-03-27T12:17:43.289Z,5.49
2023-03-27T12:20:52.849Z,5.42
2023-03-27T12:24:03.103Z,5.71
2023-03-27T12:27:11.634Z,5.63
2023-03-27T12:30:05.102Z,5.42
2023-03-27T12:33:20.857Z,5.66
2023-03-27T12:36:13.384Z,5.06
2023-03-27T12:39:00.626Z,5.33
2023-03-27T12:41:48.053Z,5.26
2023-03-27T12:45:03.279Z,5.02
2023-03-27T12:48:10.145Z,4.77
2023-03-27T12:50:58.622Z,4.78
2023-03-27T12:53:56.521Z,4.65
2023-03-27T12:56:43.743Z,4.77
2023-03-27T12:59:49.226Z,5.01
2023-03-27T13:02:45.955Z,5.01
2023-03-27T13:06:13.111Z,5.23
2023-03-27T13:09:13.886Z,5.43
2023-03-27T13:12:22.555Z,5.66
2023-03-27T13:15:24.713Z,5.69
2023-03-27T13:18:31.850Z,5.94
2023-03-27T13:21:28.874Z,6.00
2023-03-27T13:24:34.476Z,6.40
2023-03-27T13:27:49.050Z,6.17
2023-03-27T13:30:45.303Z,6.21
2023-03-27T13:33:32.431Z,6.53
2023-03-27T13:36:22.911Z,6.39
2023-03-27T13:39:21.299Z,6.36
2023-03-27T13:42:15.709Z,6.41
2023-03-27T13:45:15.531Z,6.50
2023-03-27T13:48:32.445Z,6.50
2023-03-27T13:51:42.977Z,6.64
2023-03-27T13:55:01.403Z,6.60
2023-03-27T13:58:10.394Z,6.31
2023-03-27T14:01:13.618Z,6.45
2023-03-27T14:04:25.918Z,6.22
2023-03-27T14:07:28.072Z,5.78
2023-03-27T14:10:33.336Z,5.99
2023-03-27T14:13:41.710Z,5.71
2023-03-27T14:16:52.155Z,5.85
2023-03-27T14:20:02.066Z,6.16
2023-03-27T14:22:54.147Z,5.92
2023-03-27T14:25:49.484Z,6.42
2023-03-27T14:28:54.575Z,6.71
2023-03-27T14:31:44.508Z,6.63
2023-03-27T14:34:47.220Z,6.44
2023-03-27T14:37:40.115Z,6.36
2023-03-27T14:40:33.070Z,6.56
2023-03-27T14:43:22.099Z,6.92
2023-03-27T14:46:11.895Z,7.32
2023-03-27T14:49:00.107Z,6.89
2023-03-27T14:51:49.738Z,6.47
2023-03-27T14:54:52.260Z,6.69
2023-03-27T14:57:42.067Z,6.48
2023-03-27T15:00:32.562Z,6.32
2023-03-27T15:03:23.632Z,6.24
2023-03-27T15:06:17.273Z,6.56
2023-03-27T15:09:05.731Z,7.12
2023-03-27T15:11:56.464Z,7.78
2023-03-27T15:14:43.638Z,7.94
2023-03-27T15:17:35.243Z,7.55
2023-03-27T15:20:30.467Z,7.23
2023-03-27T15:23:23.408Z,7.17
2023-03-27T15:26:31.948Z,6.68
2023-03-27T15:29:29.122Z,6.56
2023-03-27T15:32:22.399Z,6.87
2023-03-27T15:35:15.894Z,6.87
2023-03-27T15:38:06.568Z,6.88
2023-03-27T15:41:01.590Z,6.46
2023-03-27T15:43:52.338Z,6.25
2023-03-27T15:46:59.452Z,5.78
2023-03-27T15:49:46.901Z,5.64
2023-03-27T15:52:34.286Z,5.51
2023-03-27T15:55:42.608Z,5.32
2023-03-27T15:58:43.733Z,5.35
2023-03-27T16:01:40.771Z,5.29
2023-03-27T16:04:38.374Z,5.10
2023-03-27T16:07:54.440Z,5.43
2023-03-27T16:10:48.685Z,5.26
2023-03-27T16:13:59.202Z,5.59
2023-03-27T16:16:46.676Z,5.75
2023-03-27T16:19:44.967Z,5.87
2023-03-27T16:22:35.436Z,5.98
2023-03-27T16:25:22.709Z,5.77
2023-03-27T16:28:11.258Z,5.21
2023-03-27T16:30:58.585Z,5.29
2023-03-27T16:33:46.466Z,5.18
2023-03-27T16:36:34.050Z,4.42
2023-03-27T16:39:21.684Z,4.22
2023-03-27T16:42:18.399Z,4.19
2023-03-27T16:45:06.669Z,4.21
2023-03-27T16:47:54.772Z,3.80
2023-03-27T16:50:42.755Z,3.86
2023-03-27T16:53:30.716Z,3.73
2023-03-27T16:56:18.249Z,3.72
2023-03-27T16:59:05.757Z,3.70
2023-03-27T17:01:55.266Z,3.48
2023-03-27T17:04:44.372Z,3.69
2023-03-27T17:07:32.997Z,3.80
2023-03-27T17:10:20.840Z,3.62
2023-03-27T17:13:08.742Z,3.69
2023-03-27T17:15:57.073Z,3.70
2023-03-27T17:18:46.320Z,3.69
2023-03-27T17:21:33.620Z,3.54
2023-03-27T17:24:21.530Z,3.78
2023-03-27T17:27:09.323Z,3.68
2023-03-27T17:29:57.251Z,3.81
2023-03-27T17:32:46.089Z,3.52
2023-03-27T17:35:33.850Z,3.54
2023-03-27T17:38:23.259Z,3.36
2023-03-27T17:41:13.314Z,3.29
2023-03-27T17:44:00.776Z,2.99
2023-03-27T17:46:48.264Z,3.36
2023-03-27T17:49:36.154Z,3.10
2023-03-27T17:52:26.289Z,2.99
2023-03-27T17:55:14.032Z,3.01
2023-03-27T17:58:08.731Z,2.72
2023-03-27T18:00:58.190Z,2.98
2023-03-27T18:03:46.854Z,3.17
2023-03-27T18:06:34.573Z,2.99
2023-03-27T18:09:22.342Z,3.19
2023-03-27T18:12:10.119Z,2.35
2023-03-27T18:15:01.289Z,2.11
2023-03-27T18:17:49.219Z,1.91
2023-03-27T18:20:38.298Z,1.77
2023-03-27T18:23:27.767Z,1.72
2023-03-27T18:26:16.798Z,1.51
2023-03-27T18:29:05.092Z,1.39
2023-03-27T18:31:53.265Z,1.54
2023-03-27T18:34:41.864Z,1.52
2023-03-27T18:37:29.558Z,1.58
2023-03-27T18:40:19.195Z,1.59
2023-03-27T18:43:07.798Z,1.40
2023-03-27T18:46:05.936Z,1.49
2023-03-27T18:48:55.597Z,1.37
2023-03-27T18:51:45.293Z,0.90
2023-03-27T18:54:33.174Z,1.07
2023-03-27T18:57:21.419Z,0.91
2023-03-27T19:00:10.585Z,0.95
2023-03-27T19:02:58.756Z,0.77
2023-03-27T19:05:48.459Z,0.70
2023-03-27T19:08:42.658Z,0.54
2023-03-27T19:11:31.666Z,0.67
2023-03-27T19:14:19.982Z,0.54
2023-03-27T19:17:08.088Z,0.49
2023-03-27T19:19:56.309Z,0.51
2023-03-27T19:22:44.398Z,0.61
2023-03-27T19:25:36.084Z,0.56
2023-03-27T19:28:24.277Z,0.51
2023-03-27T19:31:13.403Z,0.55
2023-03-27T19:34:02.689Z,0.58
2023-03-27T19:36:52.146Z,0.53
2023-03-27T19:39:40.516Z,0.62
2023-03-27T19:42:29.211Z,0.59
2023-03-27T19:45:17.821Z,0.62
2023-03-27T19:48:06.940Z,0.74
2023-03-27T19:51:00.775Z,0.44
2023-03-27T19:53:48.669Z,0.59
2023-03-27T19:56:37.380Z,0.29
2023-03-27T19:59:30.905Z,0.27
2023-03-27T20:02:21.242Z,0.43
2023-03-27T20:05:08.902Z,0.58
2023-03-27T20:07:57.110Z,0.52
2023-03-27T20:10:46.114Z,0.45
2023-03-27T20:13:48.861Z,0.42
2023-03-27T20:16:42.640Z,0.25
2023-03-27T20:19:30.864Z,0.47
2023-03-27T20:22:21.537Z,0.75
2023-03-27T20:25:09.697Z,0.86
2023-03-27T20:27:57.113Z,0.79
2023-03-27T20:30:44.336Z,0.76
2023-03-27T20:33:32.182Z,0.85
2023-03-27T20:36:23.259Z,0.88
2023-03-27T20:39:15.997Z,0.96
2023-03-27T20:42:03.967Z,0.78
2023-03-27T20:44:59.014Z,0.85
2023-03-27T20:47:47.462Z,1.00
2023-03-27T20:50:36.346Z,1.10
2023-03-27T20:53:33.962Z,1.32
2023-03-27T20:56:23.126Z,1.18
2023-03-27T20:59:11.004Z,1.12
2023-03-27T21:01:59.543Z,1.41
2023-03-27T21:04:47.698Z,1.71
2023-03-27T21:07:38.176Z,1.72
2023-03-27T21:10:25.400Z,1.53
2023-03-27T21:13:12.448Z,1.63
2023-03-27T21:15:59.881Z,1.48
2023-03-27T21:18:47.807Z,1.47
2023-03-27T21:21:34.946Z,1.80
2023-03-27T21:24:22.016Z,1.63
2023-03-27T21:27:09.137Z,1.79
2023-03-27T21:29:56.881Z,1.85
2023-03-27T21:32:45.683Z,1.73
2023-03-27T21:35:33.372Z,1.68
2023-03-27T21:38:28.915Z,1.75
2023-03-27T21:41:17.205Z,1.72
2023-03-27T21:44:04.401Z,1.79
2023-03-27T21:46:51.449Z,1.42
2023-03-27T21:49:38.486Z,1.36
2023-03-27T21:52:25.716Z,1.58
2023-03-27T21:55:12.787Z,1.51
2023-03-27T21:57:59.944Z,1.29
2023-03-27T22:00:47.813Z,1.35
2023-03-27T22:03:35.041Z,1.54
2023-03-27T22:06:22.197Z,1.35
2023-03-27T22:09:09.912Z,1.34
2023-03-27T22:11:57.056Z,1.22
2023-03-27T22:14:44.105Z,1.20
2023-03-27T22:17:31.293Z,1.10
2023-03-27T22:20:19.071Z,0.99
2023-03-27T22:23:06.494Z,0.89
2023-03-27T22:25:56.623Z,0.89
2023-03-27T22:28:43.780Z,0.82
2023-03-27T22:31:31.174Z,0.75
2023-03-27T22:34:18.304Z,0.75
2023-03-27T22:37:06.699Z,0.70
2023-03-27T22:39:53.764Z,0.78
2023-03-27T22:42:40.848Z,0.75
2023-03-27T22:45:27.908Z,0.57
2023-03-27T22:48:15.635Z,0.70
2023-03-27T22:51:03.438Z,0.75
2023-03-27T22:53:51.300Z,0.69
2023-03-27T22:56:38.481Z,0.67
2023-03-27T22:59:25.579Z,0.66
2023-03-27T23:03:31.339Z,0.48
2023-03-27T23:06:20.128Z,0.57
2023-03-27T23:09:09.188Z,0.50
2023-03-27T23:11:56.283Z,0.47
2023-03-27T23:14:43.350Z,0.38
2023-03-27T23:17:30.486Z,0.44
2023-03-27T23:20:17.646Z,0.22
2023-03-27T23:23:04.697Z,0.32
2023-03-27T23:25:52.199Z,0.22
2023-03-27T23:28:41.746Z,0.16
2023-03-27T23:31:28.858Z,0.00
2023-03-27T23:34:15.897Z,-0.10
2023-03-27T23:37:02.933Z,0.09
2023-03-27T23:39:49.948Z,0.17
2023-03-27T23:42:37.116Z,0.05
2023-03-27T23:45:24.136Z,-0.11
2023-03-27T23:48:11.245Z,0.09
2023-03-27T23:50:58.754Z,0.19
2023-03-27T23:53:46.004Z,0.15
2023-03-27T23:56:33.007Z,0.15
2023-03-27T23:59:21.176Z,0.12
